Appleton, Minnesota
Current Conditions -  °F | °C
As of 11:54 AM on Friday 31 Oct 2014 (Local Time) from KAQP Reporting Station
Clear Clear  
Wind Chill: 31°   Ceiling: Unl
Heat Index: 36°   Visibility: 10mi
Dew Point: 21°   Wind: 6mph
Humidity: 56%   Direction: 40°NE
Pressure: 30.61"   Gusts: NA
Location:  45.2°N, 96.02°W
Report Text: KAQP 311654Z AUTO 04005KT 10SM CLR 02/M06 A3061 RMK AO2
Loading
Personal Weather Stations






























Interactive Weather Map
Tropical Storm Tracking
New forecast layout! Learn more

10-Day Weather Forecast

Advertisements
Track Severe Weather on mobile